sensor_id;sensor_type;location;lat;lon;timestamp;P1;durP1;ratioP1;P2;durP2;ratioP2
19251;SDS011;9760;50.944;5.304;2023-05-07T00:02:24;10.13;;;4.67;;
19251;SDS011;9760;50.944;5.304;2023-05-07T00:04:50;12.30;;;4.90;;
19251;SDS011;9760;50.944;5.304;2023-05-07T00:07:17;9.13;;;4.93;;
19251;SDS011;9760;50.944;5.304;2023-05-07T00:09:43;11.87;;;4.60;;
19251;SDS011;9760;50.944;5.304;2023-05-07T00:12:09;11.00;;;5.17;;
19251;SDS011;9760;50.944;5.304;2023-05-07T00:14:35;10.03;;;4.90;;
19251;SDS011;9760;50.944;5.304;2023-05-07T00:17:00;9.80;;;5.17;;
19251;SDS011;9760;50.944;5.304;2023-05-07T00:19:26;10.53;;;5.33;;
19251;SDS011;9760;50.944;5.304;2023-05-07T00:21:52;9.07;;;5.07;;
19251;SDS011;9760;50.944;5.304;2023-05-07T00:24:19;13.67;;;5.00;;
19251;SDS011;9760;50.944;5.304;2023-05-07T00:26:45;7.73;;;4.67;;
19251;SDS011;9760;50.944;5.304;2023-05-07T00:29:10;7.67;;;4.90;;
19251;SDS011;9760;50.944;5.304;2023-05-07T00:31:36;11.33;;;5.40;;
19251;SDS011;9760;50.944;5.304;2023-05-07T00:34:02;10.13;;;4.53;;
19251;SDS011;9760;50.944;5.304;2023-05-07T00:36:27;10.07;;;5.07;;
19251;SDS011;9760;50.944;5.304;2023-05-07T00:38:54;17.83;;;7.40;;
19251;SDS011;9760;50.944;5.304;2023-05-07T00:41:21;10.27;;;5.63;;
19251;SDS011;9760;50.944;5.304;2023-05-07T00:43:47;8.63;;;4.87;;
19251;SDS011;9760;50.944;5.304;2023-05-07T00:46:13;11.87;;;5.13;;
19251;SDS011;9760;50.944;5.304;2023-05-07T00:48:40;7.70;;;5.20;;
19251;SDS011;9760;50.944;5.304;2023-05-07T00:51:06;10.70;;;5.07;;
19251;SDS011;9760;50.944;5.304;2023-05-07T00:53:32;10.03;;;4.73;;
19251;SDS011;9760;50.944;5.304;2023-05-07T00:55:57;8.83;;;4.97;;
19251;SDS011;9760;50.944;5.304;2023-05-07T00:58:23;11.23;;;5.43;;
19251;SDS011;9760;50.944;5.304;2023-05-07T01:00:49;12.33;;;5.37;;
19251;SDS011;9760;50.944;5.304;2023-05-07T01:03:15;15.40;;;5.40;;
19251;SDS011;9760;50.944;5.304;2023-05-07T01:05:41;10.60;;;5.20;;
19251;SDS011;9760;50.944;5.304;2023-05-07T01:08:08;13.03;;;5.90;;
19251;SDS011;9760;50.944;5.304;2023-05-07T01:10:35;9.70;;;6.07;;
19251;SDS011;9760;50.944;5.304;2023-05-07T01:13:01;11.73;;;5.33;;
19251;SDS011;9760;50.944;5.304;2023-05-07T01:15:27;13.53;;;5.30;;
19251;SDS011;9760;50.944;5.304;2023-05-07T01:17:53;12.67;;;4.80;;
19251;SDS011;9760;50.944;5.304;2023-05-07T01:20:20;10.07;;;5.50;;
19251;SDS011;9760;50.944;5.304;2023-05-07T01:22:47;13.90;;;5.47;;
19251;SDS011;9760;50.944;5.304;2023-05-07T01:25:14;8.97;;;5.13;;
19251;SDS011;9760;50.944;5.304;2023-05-07T01:27:41;8.13;;;5.27;;
19251;SDS011;9760;50.944;5.304;2023-05-07T01:30:07;12.03;;;5.53;;
19251;SDS011;9760;50.944;5.304;2023-05-07T01:32:38;9.60;;;5.50;;
19251;SDS011;9760;50.944;5.304;2023-05-07T01:35:11;9.90;;;5.10;;
19251;SDS011;9760;50.944;5.304;2023-05-07T01:37:39;9.97;;;5.60;;
19251;SDS011;9760;50.944;5.304;2023-05-07T01:40:05;8.37;;;4.80;;
19251;SDS011;9760;50.944;5.304;2023-05-07T01:42:35;10.93;;;5.83;;
19251;SDS011;9760;50.944;5.304;2023-05-07T01:45:01;9.97;;;6.03;;
19251;SDS011;9760;50.944;5.304;2023-05-07T01:47:27;14.20;;;5.63;;
19251;SDS011;9760;50.944;5.304;2023-05-07T01:49:55;12.23;;;5.47;;
19251;SDS011;9760;50.944;5.304;2023-05-07T01:52:21;9.93;;;5.43;;
19251;SDS011;9760;50.944;5.304;2023-05-07T01:54:47;13.00;;;5.50;;
19251;SDS011;9760;50.944;5.304;2023-05-07T01:57:13;11.23;;;5.70;;
19251;SDS011;9760;50.944;5.304;2023-05-07T01:59:38;9.90;;;5.53;;
19251;SDS011;9760;50.944;5.304;2023-05-07T02:02:04;10.87;;;5.33;;
19251;SDS011;9760;50.944;5.304;2023-05-07T02:04:30;16.23;;;6.00;;
19251;SDS011;9760;50.944;5.304;2023-05-07T02:06:55;11.17;;;5.60;;
19251;SDS011;9760;50.944;5.304;2023-05-07T02:09:21;9.33;;;5.70;;
19251;SDS011;9760;50.944;5.304;2023-05-07T02:11:47;8.27;;;5.57;;
19251;SDS011;9760;50.944;5.304;2023-05-07T02:14:13;11.23;;;5.87;;
19251;SDS011;9760;50.944;5.304;2023-05-07T02:16:39;10.27;;;5.80;;
19251;SDS011;9760;50.944;5.304;2023-05-07T02:19:04;11.83;;;5.77;;
19251;SDS011;9760;50.944;5.304;2023-05-07T02:21:30;11.87;;;5.37;;
19251;SDS011;9760;50.944;5.304;2023-05-07T02:23:56;9.97;;;5.50;;
19251;SDS011;9760;50.944;5.304;2023-05-07T02:26:21;8.97;;;5.60;;
19251;SDS011;9760;50.944;5.304;2023-05-07T02:28:47;13.53;;;5.90;;
19251;SDS011;9760;50.944;5.304;2023-05-07T02:31:13;11.00;;;5.80;;
19251;SDS011;9760;50.944;5.304;2023-05-07T02:33:38;8.37;;;5.70;;
19251;SDS011;9760;50.944;5.304;2023-05-07T02:36:05;12.33;;;6.00;;
19251;SDS011;9760;50.944;5.304;2023-05-07T02:38:32;10.33;;;5.67;;
19251;SDS011;9760;50.944;5.304;2023-05-07T02:40:58;9.50;;;5.27;;
19251;SDS011;9760;50.944;5.304;2023-05-07T02:43:24;10.67;;;5.90;;
19251;SDS011;9760;50.944;5.304;2023-05-07T02:45:59;8.13;;;5.10;;
19251;SDS011;9760;50.944;5.304;2023-05-07T02:48:26;8.50;;;5.50;;
19251;SDS011;9760;50.944;5.304;2023-05-07T02:50:52;11.33;;;5.67;;
19251;SDS011;9760;50.944;5.304;2023-05-07T02:53:17;9.93;;;5.07;;
19251;SDS011;9760;50.944;5.304;2023-05-07T02:55:43;9.23;;;5.40;;
19251;SDS011;9760;50.944;5.304;2023-05-07T02:58:09;12.77;;;6.03;;
19251;SDS011;9760;50.944;5.304;2023-05-07T03:00:34;11.77;;;6.40;;
19251;SDS011;9760;50.944;5.304;2023-05-07T03:03:00;9.87;;;5.37;;
19251;SDS011;9760;50.944;5.304;2023-05-07T03:05:26;10.13;;;5.63;;
19251;SDS011;9760;50.944;5.304;2023-05-07T03:07:51;13.70;;;6.60;;
19251;SDS011;9760;50.944;5.304;2023-05-07T03:10:17;12.93;;;6.23;;
19251;SDS011;9760;50.944;5.304;2023-05-07T03:12:43;12.23;;;5.97;;
19251;SDS011;9760;50.944;5.304;2023-05-07T03:15:09;8.70;;;6.40;;
19251;SDS011;9760;50.944;5.304;2023-05-07T03:17:36;10.60;;;6.17;;
19251;SDS011;9760;50.944;5.304;2023-05-07T03:20:02;11.17;;;6.20;;
19251;SDS011;9760;50.944;5.304;2023-05-07T03:22:27;14.47;;;6.53;;
19251;SDS011;9760;50.944;5.304;2023-05-07T03:24:53;11.83;;;6.43;;
19251;SDS011;9760;50.944;5.304;2023-05-07T03:27:19;10.00;;;6.77;;
19251;SDS011;9760;50.944;5.304;2023-05-07T03:29:45;12.07;;;6.63;;
19251;SDS011;9760;50.944;5.304;2023-05-07T03:32:11;10.10;;;5.90;;
19251;SDS011;9760;50.944;5.304;2023-05-07T03:34:36;10.27;;;6.07;;
19251;SDS011;9760;50.944;5.304;2023-05-07T03:37:02;10.87;;;6.47;;
19251;SDS011;9760;50.944;5.304;2023-05-07T03:39:27;11.53;;;6.90;;
19251;SDS011;9760;50.944;5.304;2023-05-07T03:41:53;15.57;;;6.87;;
19251;SDS011;9760;50.944;5.304;2023-05-07T03:44:19;13.23;;;6.77;;
19251;SDS011;9760;50.944;5.304;2023-05-07T03:46:45;9.77;;;6.03;;
19251;SDS011;9760;50.944;5.304;2023-05-07T03:49:10;15.17;;;7.43;;
19251;SDS011;9760;50.944;5.304;2023-05-07T03:51:36;9.53;;;6.40;;
19251;SDS011;9760;50.944;5.304;2023-05-07T03:54:01;13.53;;;7.33;;
19251;SDS011;9760;50.944;5.304;2023-05-07T03:56:27;12.90;;;6.70;;
19251;SDS011;9760;50.944;5.304;2023-05-07T03:58:53;11.70;;;6.60;;
19251;SDS011;9760;50.944;5.304;2023-05-07T04:01:19;11.83;;;6.80;;
19251;SDS011;9760;50.944;5.304;2023-05-07T04:03:44;12.03;;;7.00;;
19251;SDS011;9760;50.944;5.304;2023-05-07T04:06:10;13.97;;;7.20;;
19251;SDS011;9760;50.944;5.304;2023-05-07T04:08:37;12.50;;;7.47;;
19251;SDS011;9760;50.944;5.304;2023-05-07T04:11:02;16.30;;;7.57;;
19251;SDS011;9760;50.944;5.304;2023-05-07T04:13:29;13.53;;;6.97;;
19251;SDS011;9760;50.944;5.304;2023-05-07T04:15:55;14.03;;;7.40;;
19251;SDS011;9760;50.944;5.304;2023-05-07T04:18:21;10.30;;;7.00;;
19251;SDS011;9760;50.944;5.304;2023-05-07T04:20:49;16.37;;;6.80;;
19251;SDS011;9760;50.944;5.304;2023-05-07T04:23:15;10.63;;;6.53;;
19251;SDS011;9760;50.944;5.304;2023-05-07T04:25:41;9.20;;;6.43;;
19251;SDS011;9760;50.944;5.304;2023-05-07T04:28:07;12.70;;;6.70;;
19251;SDS011;9760;50.944;5.304;2023-05-07T04:30:32;14.67;;;6.70;;
19251;SDS011;9760;50.944;5.304;2023-05-07T04:32:58;14.60;;;7.13;;
19251;SDS011;9760;50.944;5.304;2023-05-07T04:35:23;10.10;;;6.87;;
19251;SDS011;9760;50.944;5.304;2023-05-07T04:37:49;10.90;;;6.33;;
19251;SDS011;9760;50.944;5.304;2023-05-07T04:40:15;10.87;;;6.27;;
19251;SDS011;9760;50.944;5.304;2023-05-07T04:42:41;10.63;;;6.63;;
19251;SDS011;9760;50.944;5.304;2023-05-07T04:45:06;12.33;;;7.13;;
19251;SDS011;9760;50.944;5.304;2023-05-07T04:47:33;16.30;;;7.13;;
19251;SDS011;9760;50.944;5.304;2023-05-07T04:49:59;13.47;;;6.93;;
19251;SDS011;9760;50.944;5.304;2023-05-07T04:52:25;12.40;;;6.43;;
19251;SDS011;9760;50.944;5.304;2023-05-07T04:54:50;14.17;;;6.83;;
19251;SDS011;9760;50.944;5.304;2023-05-07T04:57:16;11.13;;;6.70;;
19251;SDS011;9760;50.944;5.304;2023-05-07T04:59:42;10.97;;;6.40;;
19251;SDS011;9760;50.944;5.304;2023-05-07T05:02:11;14.33;;;7.00;;
19251;SDS011;9760;50.944;5.304;2023-05-07T05:04:37;9.50;;;6.40;;
19251;SDS011;9760;50.944;5.304;2023-05-07T05:07:02;13.33;;;6.93;;
19251;SDS011;9760;50.944;5.304;2023-05-07T05:09:31;10.43;;;6.33;;
19251;SDS011;9760;50.944;5.304;2023-05-07T05:11:57;13.97;;;7.30;;
19251;SDS011;9760;50.944;5.304;2023-05-07T05:14:22;13.00;;;7.63;;
19251;SDS011;9760;50.944;5.304;2023-05-07T05:16:48;11.70;;;7.23;;
19251;SDS011;9760;50.944;5.304;2023-05-07T05:19:14;10.97;;;7.40;;
19251;SDS011;9760;50.944;5.304;2023-05-07T05:21:40;16.43;;;7.13;;
19251;SDS011;9760;50.944;5.304;2023-05-07T05:24:05;12.60;;;7.10;;
19251;SDS011;9760;50.944;5.304;2023-05-07T05:26:31;16.60;;;8.40;;
19251;SDS011;9760;50.944;5.304;2023-05-07T05:28:57;15.07;;;7.83;;
19251;SDS011;9760;50.944;5.304;2023-05-07T05:31:22;13.57;;;7.93;;
19251;SDS011;9760;50.944;5.304;2023-05-07T05:33:48;10.33;;;7.13;;
19251;SDS011;9760;50.944;5.304;2023-05-07T05:36:14;17.13;;;7.70;;
19251;SDS011;9760;50.944;5.304;2023-05-07T05:38:39;11.33;;;7.00;;
19251;SDS011;9760;50.944;5.304;2023-05-07T05:41:05;16.80;;;7.63;;
19251;SDS011;9760;50.944;5.304;2023-05-07T05:43:31;14.00;;;8.33;;
19251;SDS011;9760;50.944;5.304;2023-05-07T05:45:56;15.27;;;7.87;;
19251;SDS011;9760;50.944;5.304;2023-05-07T05:48:22;13.60;;;7.27;;
19251;SDS011;9760;50.944;5.304;2023-05-07T05:50:48;14.90;;;7.83;;
19251;SDS011;9760;50.944;5.304;2023-05-07T05:53:14;15.83;;;7.53;;
19251;SDS011;9760;50.944;5.304;2023-05-07T05:55:40;23.43;;;7.80;;
19251;SDS011;9760;50.944;5.304;2023-05-07T05:58:06;12.23;;;7.30;;
19251;SDS011;9760;50.944;5.304;2023-05-07T06:00:32;12.50;;;7.47;;
19251;SDS011;9760;50.944;5.304;2023-05-07T06:02:58;16.63;;;7.87;;
19251;SDS011;9760;50.944;5.304;2023-05-07T06:05:24;11.80;;;7.53;;
19251;SDS011;9760;50.944;5.304;2023-05-07T06:07:50;12.53;;;7.63;;
19251;SDS011;9760;50.944;5.304;2023-05-07T06:10:15;13.70;;;7.40;;
19251;SDS011;9760;50.944;5.304;2023-05-07T06:12:41;13.07;;;6.90;;
19251;SDS011;9760;50.944;5.304;2023-05-07T06:15:07;11.40;;;6.80;;
19251;SDS011;9760;50.944;5.304;2023-05-07T06:17:33;13.87;;;7.67;;
19251;SDS011;9760;50.944;5.304;2023-05-07T06:19:59;15.63;;;7.40;;
19251;SDS011;9760;50.944;5.304;2023-05-07T06:22:24;12.23;;;6.60;;
19251;SDS011;9760;50.944;5.304;2023-05-07T06:24:50;9.37;;;6.60;;
19251;SDS011;9760;50.944;5.304;2023-05-07T06:27:16;13.50;;;7.13;;
19251;SDS011;9760;50.944;5.304;2023-05-07T06:29:41;13.00;;;7.10;;
19251;SDS011;9760;50.944;5.304;2023-05-07T06:32:08;13.83;;;6.90;;
19251;SDS011;9760;50.944;5.304;2023-05-07T06:34:34;13.63;;;6.77;;
19251;SDS011;9760;50.944;5.304;2023-05-07T06:37:00;10.83;;;6.53;;
19251;SDS011;9760;50.944;5.304;2023-05-07T06:39:26;10.20;;;6.40;;
19251;SDS011;9760;50.944;5.304;2023-05-07T06:41:52;11.67;;;5.97;;
19251;SDS011;9760;50.944;5.304;2023-05-07T06:44:17;13.60;;;6.00;;
19251;SDS011;9760;50.944;5.304;2023-05-07T06:46:43;11.37;;;5.27;;
19251;SDS011;9760;50.944;5.304;2023-05-07T06:49:10;13.83;;;5.33;;
19251;SDS011;9760;50.944;5.304;2023-05-07T06:51:37;8.03;;;5.43;;
19251;SDS011;9760;50.944;5.304;2023-05-07T06:54:03;9.10;;;5.43;;
19251;SDS011;9760;50.944;5.304;2023-05-07T06:56:29;10.73;;;5.73;;
19251;SDS011;9760;50.944;5.304;2023-05-07T06:58:55;9.87;;;5.73;;
19251;SDS011;9760;50.944;5.304;2023-05-07T07:01:21;9.80;;;5.97;;
19251;SDS011;9760;50.944;5.304;2023-05-07T07:03:47;15.83;;;6.10;;
19251;SDS011;9760;50.944;5.304;2023-05-07T07:06:13;10.73;;;5.83;;
19251;SDS011;9760;50.944;5.304;2023-05-07T07:08:38;13.67;;;7.87;;
19251;SDS011;9760;50.944;5.304;2023-05-07T07:11:04;14.50;;;7.17;;
19251;SDS011;9760;50.944;5.304;2023-05-07T07:13:30;10.83;;;6.70;;
19251;SDS011;9760;50.944;5.304;2023-05-07T07:15:56;8.80;;;4.50;;
19251;SDS011;9760;50.944;5.304;2023-05-07T07:18:22;10.33;;;5.27;;
19251;SDS011;9760;50.944;5.304;2023-05-07T07:20:47;10.83;;;4.50;;
19251;SDS011;9760;50.944;5.304;2023-05-07T07:23:13;8.30;;;4.20;;
19251;SDS011;9760;50.944;5.304;2023-05-07T07:25:39;5.90;;;3.80;;
19251;SDS011;9760;50.944;5.304;2023-05-07T07:28:05;8.47;;;4.77;;
19251;SDS011;9760;50.944;5.304;2023-05-07T07:30:31;13.00;;;4.63;;
19251;SDS011;9760;50.944;5.304;2023-05-07T07:32:57;16.03;;;4.50;;
19251;SDS011;9760;50.944;5.304;2023-05-07T07:35:27;7.30;;;3.40;;
19251;SDS011;9760;50.944;5.304;2023-05-07T07:37:57;5.57;;;3.50;;
19251;SDS011;9760;50.944;5.304;2023-05-07T07:40:22;10.47;;;3.60;;
19251;SDS011;9760;50.944;5.304;2023-05-07T07:42:49;7.17;;;3.80;;
19251;SDS011;9760;50.944;5.304;2023-05-07T07:45:15;9.97;;;3.97;;
19251;SDS011;9760;50.944;5.304;2023-05-07T07:47:41;11.03;;;3.67;;
19251;SDS011;9760;50.944;5.304;2023-05-07T07:50:07;7.83;;;3.67;;
19251;SDS011;9760;50.944;5.304;2023-05-07T07:52:34;9.63;;;3.83;;
19251;SDS011;9760;50.944;5.304;2023-05-07T07:55:00;10.67;;;4.00;;
19251;SDS011;9760;50.944;5.304;2023-05-07T07:57:26;7.93;;;3.60;;
19251;SDS011;9760;50.944;5.304;2023-05-07T07:59:52;7.53;;;3.80;;
19251;SDS011;9760;50.944;5.304;2023-05-07T08:02:17;10.13;;;3.83;;
19251;SDS011;9760;50.944;5.304;2023-05-07T08:04:43;8.90;;;3.77;;
19251;SDS011;9760;50.944;5.304;2023-05-07T08:07:09;7.27;;;3.80;;
19251;SDS011;9760;50.944;5.304;2023-05-07T08:09:36;5.83;;;3.63;;
19251;SDS011;9760;50.944;5.304;2023-05-07T08:12:03;8.63;;;4.17;;
19251;SDS011;9760;50.944;5.304;2023-05-07T08:14:29;11.67;;;3.97;;
19251;SDS011;9760;50.944;5.304;2023-05-07T08:16:55;7.43;;;4.03;;
19251;SDS011;9760;50.944;5.304;2023-05-07T08:19:20;10.97;;;4.13;;
19251;SDS011;9760;50.944;5.304;2023-05-07T08:21:47;7.30;;;4.73;;
19251;SDS011;9760;50.944;5.304;2023-05-07T08:24:13;11.73;;;4.70;;
19251;SDS011;9760;50.944;5.304;2023-05-07T08:26:40;11.57;;;4.90;;
19251;SDS011;9760;50.944;5.304;2023-05-07T08:29:06;9.87;;;4.53;;
19251;SDS011;9760;50.944;5.304;2023-05-07T08:31:31;10.80;;;5.10;;
19251;SDS011;9760;50.944;5.304;2023-05-07T08:33:57;11.50;;;4.97;;
19251;SDS011;9760;50.944;5.304;2023-05-07T08:36:24;14.60;;;5.27;;
19251;SDS011;9760;50.944;5.304;2023-05-07T08:38:50;10.60;;;4.80;;
19251;SDS011;9760;50.944;5.304;2023-05-07T08:41:16;10.83;;;4.60;;
19251;SDS011;9760;50.944;5.304;2023-05-07T08:43:42;11.83;;;5.00;;
19251;SDS011;9760;50.944;5.304;2023-05-07T08:46:13;8.93;;;4.57;;
19251;SDS011;9760;50.944;5.304;2023-05-07T08:48:47;8.83;;;4.63;;
19251;SDS011;9760;50.944;5.304;2023-05-07T08:51:15;12.20;;;4.40;;
19251;SDS011;9760;50.944;5.304;2023-05-07T08:53:42;14.20;;;5.10;;
19251;SDS011;9760;50.944;5.304;2023-05-07T08:56:09;13.03;;;4.13;;
19251;SDS011;9760;50.944;5.304;2023-05-07T08:58:35;11.43;;;4.30;;
19251;SDS011;9760;50.944;5.304;2023-05-07T09:01:08;14.40;;;4.63;;
19251;SDS011;9760;50.944;5.304;2023-05-07T09:03:36;12.87;;;5.37;;
19251;SDS011;9760;50.944;5.304;2023-05-07T09:06:03;13.50;;;4.93;;
19251;SDS011;9760;50.944;5.304;2023-05-07T09:08:29;8.67;;;4.73;;
19251;SDS011;9760;50.944;5.304;2023-05-07T09:10:57;16.53;;;5.73;;
19251;SDS011;9760;50.944;5.304;2023-05-07T09:13:23;9.37;;;4.80;;
19251;SDS011;9760;50.944;5.304;2023-05-07T09:15:48;13.60;;;5.40;;
19251;SDS011;9760;50.944;5.304;2023-05-07T09:18:14;10.60;;;4.97;;
19251;SDS011;9760;50.944;5.304;2023-05-07T09:20:40;9.77;;;4.93;;
19251;SDS011;9760;50.944;5.304;2023-05-07T09:23:07;12.17;;;5.00;;
19251;SDS011;9760;50.944;5.304;2023-05-07T09:25:33;11.27;;;5.50;;
19251;SDS011;9760;50.944;5.304;2023-05-07T09:28:00;10.57;;;5.00;;
19251;SDS011;9760;50.944;5.304;2023-05-07T09:30:27;11.83;;;5.70;;
19251;SDS011;9760;50.944;5.304;2023-05-07T09:33:00;8.13;;;4.80;;
19251;SDS011;9760;50.944;5.304;2023-05-07T09:35:26;14.80;;;5.90;;
19251;SDS011;9760;50.944;5.304;2023-05-07T09:37:56;15.50;;;5.90;;
19251;SDS011;9760;50.944;5.304;2023-05-07T09:40:24;15.87;;;6.57;;
19251;SDS011;9760;50.944;5.304;2023-05-07T09:42:54;12.83;;;5.50;;
19251;SDS011;9760;50.944;5.304;2023-05-07T09:45:27;15.73;;;5.43;;
19251;SDS011;9760;50.944;5.304;2023-05-07T09:47:54;10.63;;;4.23;;
19251;SDS011;9760;50.944;5.304;2023-05-07T09:50:22;8.87;;;4.30;;
19251;SDS011;9760;50.944;5.304;2023-05-07T09:52:54;10.13;;;4.00;;
19251;SDS011;9760;50.944;5.304;2023-05-07T09:55:20;11.30;;;4.40;;
19251;SDS011;9760;50.944;5.304;2023-05-07T09:57:50;13.13;;;4.00;;
19251;SDS011;9760;50.944;5.304;2023-05-07T10:00:20;12.23;;;4.67;;
19251;SDS011;9760;50.944;5.304;2023-05-07T10:02:47;11.33;;;4.10;;
19251;SDS011;9760;50.944;5.304;2023-05-07T10:05:14;14.50;;;5.30;;
19251;SDS011;9760;50.944;5.304;2023-05-07T10:07:41;11.30;;;5.23;;
19251;SDS011;9760;50.944;5.304;2023-05-07T10:10:07;15.03;;;5.13;;
19251;SDS011;9760;50.944;5.304;2023-05-07T10:12:33;14.03;;;4.57;;
19251;SDS011;9760;50.944;5.304;2023-05-07T10:15:12;12.17;;;5.03;;
19251;SDS011;9760;50.944;5.304;2023-05-07T10:17:39;22.53;;;5.50;;
19251;SDS011;9760;50.944;5.304;2023-05-07T10:20:06;12.37;;;5.57;;
19251;SDS011;9760;50.944;5.304;2023-05-07T10:22:37;13.70;;;5.20;;
19251;SDS011;9760;50.944;5.304;2023-05-07T10:25:16;12.80;;;5.00;;
19251;SDS011;9760;50.944;5.304;2023-05-07T10:27:46;12.30;;;4.97;;
19251;SDS011;9760;50.944;5.304;2023-05-07T10:30:27;14.27;;;5.30;;
19251;SDS011;9760;50.944;5.304;2023-05-07T10:33:20;18.37;;;5.93;;
19251;SDS011;9760;50.944;5.304;2023-05-07T10:35:51;14.80;;;5.70;;
19251;SDS011;9760;50.944;5.304;2023-05-07T10:38:20;17.63;;;5.87;;
19251;SDS011;9760;50.944;5.304;2023-05-07T10:40:46;17.60;;;6.30;;
19251;SDS011;9760;50.944;5.304;2023-05-07T10:43:12;15.17;;;5.80;;
19251;SDS011;9760;50.944;5.304;2023-05-07T10:45:37;17.13;;;5.87;;
19251;SDS011;9760;50.944;5.304;2023-05-07T10:48:07;16.40;;;6.27;;
19251;SDS011;9760;50.944;5.304;2023-05-07T10:50:33;16.97;;;5.80;;
19251;SDS011;9760;50.944;5.304;2023-05-07T10:55:43;13.57;;;5.70;;
19251;SDS011;9760;50.944;5.304;2023-05-07T10:58:29;10.67;;;5.67;;
19251;SDS011;9760;50.944;5.304;2023-05-07T11:03:22;14.33;;;5.97;;
19251;SDS011;9760;50.944;5.304;2023-05-07T11:05:55;11.87;;;5.50;;
19251;SDS011;9760;50.944;5.304;2023-05-07T11:11:17;13.47;;;5.17;;
19251;SDS011;9760;50.944;5.304;2023-05-07T11:13:44;13.13;;;4.90;;
19251;SDS011;9760;50.944;5.304;2023-05-07T11:16:23;10.80;;;4.60;;
19251;SDS011;9760;50.944;5.304;2023-05-07T11:18:50;26.97;;;4.53;;
19251;SDS011;9760;50.944;5.304;2023-05-07T11:24:04;10.47;;;4.63;;
19251;SDS011;9760;50.944;5.304;2023-05-07T11:26:41;12.33;;;4.67;;
19251;SDS011;9760;50.944;5.304;2023-05-07T11:29:10;15.10;;;5.13;;
19251;SDS011;9760;50.944;5.304;2023-05-07T11:31:43;13.47;;;5.50;;
19251;SDS011;9760;50.944;5.304;2023-05-07T11:34:13;14.13;;;4.90;;
19251;SDS011;9760;50.944;5.304;2023-05-07T11:36:43;12.53;;;4.90;;
19251;SDS011;9760;50.944;5.304;2023-05-07T11:39:28;18.07;;;5.60;;
19251;SDS011;9760;50.944;5.304;2023-05-07T11:41:56;14.57;;;5.30;;
19251;SDS011;9760;50.944;5.304;2023-05-07T11:44:22;12.77;;;4.50;;
19251;SDS011;9760;50.944;5.304;2023-05-07T11:46:48;12.37;;;5.33;;
19251;SDS011;9760;50.944;5.304;2023-05-07T11:49:14;12.47;;;5.27;;
19251;SDS011;9760;50.944;5.304;2023-05-07T11:51:40;14.03;;;5.10;;
19251;SDS011;9760;50.944;5.304;2023-05-07T11:54:07;12.10;;;5.30;;
19251;SDS011;9760;50.944;5.304;2023-05-07T11:56:36;19.87;;;5.43;;
19251;SDS011;9760;50.944;5.304;2023-05-07T11:59:02;14.57;;;5.07;;
19251;SDS011;9760;50.944;5.304;2023-05-07T12:01:28;14.47;;;5.30;;
19251;SDS011;9760;50.944;5.304;2023-05-07T12:03:53;12.60;;;5.03;;
19251;SDS011;9760;50.944;5.304;2023-05-07T12:06:19;20.33;;;5.30;;
19251;SDS011;9760;50.944;5.304;2023-05-07T12:08:45;17.70;;;5.40;;
19251;SDS011;9760;50.944;5.304;2023-05-07T12:11:22;15.47;;;5.27;;
19251;SDS011;9760;50.944;5.304;2023-05-07T12:13:48;12.00;;;4.43;;
19251;SDS011;9760;50.944;5.304;2023-05-07T12:16:14;13.43;;;5.37;;
19251;SDS011;9760;50.944;5.304;2023-05-07T12:18:40;14.90;;;5.80;;
19251;SDS011;9760;50.944;5.304;2023-05-07T12:21:06;12.47;;;5.47;;
19251;SDS011;9760;50.944;5.304;2023-05-07T12:23:35;13.53;;;4.87;;
19251;SDS011;9760;50.944;5.304;2023-05-07T12:26:02;13.57;;;5.43;;
19251;SDS011;9760;50.944;5.304;2023-05-07T12:28:28;15.73;;;5.60;;
19251;SDS011;9760;50.944;5.304;2023-05-07T12:30:54;12.73;;;4.83;;
19251;SDS011;9760;50.944;5.304;2023-05-07T12:33:23;13.73;;;4.77;;
19251;SDS011;9760;50.944;5.304;2023-05-07T12:35:50;14.93;;;5.20;;
19251;SDS011;9760;50.944;5.304;2023-05-07T12:38:17;15.23;;;5.37;;
19251;SDS011;9760;50.944;5.304;2023-05-07T12:40:48;12.77;;;4.87;;
19251;SDS011;9760;50.944;5.304;2023-05-07T12:43:21;9.23;;;4.83;;
19251;SDS011;9760;50.944;5.304;2023-05-07T12:45:50;10.47;;;5.03;;
19251;SDS011;9760;50.944;5.304;2023-05-07T12:48:19;11.20;;;4.53;;
19251;SDS011;9760;50.944;5.304;2023-05-07T12:50:45;15.50;;;5.00;;
19251;SDS011;9760;50.944;5.304;2023-05-07T12:53:20;13.43;;;4.90;;
19251;SDS011;9760;50.944;5.304;2023-05-07T12:55:47;12.70;;;4.23;;
19251;SDS011;9760;50.944;5.304;2023-05-07T12:58:18;13.50;;;4.87;;
19251;SDS011;9760;50.944;5.304;2023-05-07T13:00:55;13.23;;;5.40;;
19251;SDS011;9760;50.944;5.304;2023-05-07T13:03:30;7.73;;;3.57;;
19251;SDS011;9760;50.944;5.304;2023-05-07T13:05:58;10.37;;;3.73;;
19251;SDS011;9760;50.944;5.304;2023-05-07T13:08:32;13.20;;;3.60;;
19251;SDS011;9760;50.944;5.304;2023-05-07T13:11:00;8.30;;;2.80;;
19251;SDS011;9760;50.944;5.304;2023-05-07T13:13:33;8.13;;;3.63;;
19251;SDS011;9760;50.944;5.304;2023-05-07T13:16:03;6.33;;;2.63;;
19251;SDS011;9760;50.944;5.304;2023-05-07T13:18:30;8.50;;;3.30;;
19251;SDS011;9760;50.944;5.304;2023-05-07T13:20:57;7.53;;;2.30;;
19251;SDS011;9760;50.944;5.304;2023-05-07T13:23:23;13.53;;;2.70;;
19251;SDS011;9760;50.944;5.304;2023-05-07T13:25:49;7.70;;;2.47;;
19251;SDS011;9760;50.944;5.304;2023-05-07T13:28:15;8.40;;;4.07;;
19251;SDS011;9760;50.944;5.304;2023-05-07T13:30:41;15.03;;;3.40;;
19251;SDS011;9760;50.944;5.304;2023-05-07T13:33:07;8.10;;;3.23;;
19251;SDS011;9760;50.944;5.304;2023-05-07T13:35:33;17.73;;;3.97;;
19251;SDS011;9760;50.944;5.304;2023-05-07T13:37:59;13.50;;;4.30;;
19251;SDS011;9760;50.944;5.304;2023-05-07T13:40:24;9.93;;;2.80;;
19251;SDS011;9760;50.944;5.304;2023-05-07T13:42:50;11.50;;;3.67;;
19251;SDS011;9760;50.944;5.304;2023-05-07T13:45:16;6.77;;;2.63;;
19251;SDS011;9760;50.944;5.304;2023-05-07T13:47:45;6.07;;;2.93;;
19251;SDS011;9760;50.944;5.304;2023-05-07T13:50:12;8.50;;;2.67;;
19251;SDS011;9760;50.944;5.304;2023-05-07T13:52:40;8.73;;;2.80;;
19251;SDS011;9760;50.944;5.304;2023-05-07T13:55:07;5.97;;;2.63;;
19251;SDS011;9760;50.944;5.304;2023-05-07T13:57:34;5.37;;;2.17;;
19251;SDS011;9760;50.944;5.304;2023-05-07T14:00:00;6.97;;;2.43;;
19251;SDS011;9760;50.944;5.304;2023-05-07T14:02:26;8.03;;;3.23;;
19251;SDS011;9760;50.944;5.304;2023-05-07T14:04:51;6.73;;;2.60;;
19251;SDS011;9760;50.944;5.304;2023-05-07T14:07:17;10.00;;;2.37;;
19251;SDS011;9760;50.944;5.304;2023-05-07T14:09:43;9.40;;;2.40;;
19251;SDS011;9760;50.944;5.304;2023-05-07T14:12:10;9.60;;;2.47;;
19251;SDS011;9760;50.944;5.304;2023-05-07T14:14:35;9.73;;;2.77;;
19251;SDS011;9760;50.944;5.304;2023-05-07T14:17:01;6.60;;;2.77;;
19251;SDS011;9760;50.944;5.304;2023-05-07T14:19:27;8.87;;;3.00;;
19251;SDS011;9760;50.944;5.304;2023-05-07T14:21:52;9.67;;;3.20;;
19251;SDS011;9760;50.944;5.304;2023-05-07T14:24:18;9.60;;;3.63;;
19251;SDS011;9760;50.944;5.304;2023-05-07T14:26:44;10.30;;;3.60;;
19251;SDS011;9760;50.944;5.304;2023-05-07T14:29:10;8.60;;;2.87;;
19251;SDS011;9760;50.944;5.304;2023-05-07T14:31:36;6.13;;;2.23;;
19251;SDS011;9760;50.944;5.304;2023-05-07T14:34:01;8.30;;;2.33;;
19251;SDS011;9760;50.944;5.304;2023-05-07T14:36:27;7.37;;;2.60;;
19251;SDS011;9760;50.944;5.304;2023-05-07T14:38:55;8.13;;;2.43;;
19251;SDS011;9760;50.944;5.304;2023-05-07T14:41:21;8.50;;;2.53;;
19251;SDS011;9760;50.944;5.304;2023-05-07T14:43:47;4.23;;;2.27;;
19251;SDS011;9760;50.944;5.304;2023-05-07T14:46:17;7.33;;;2.10;;
19251;SDS011;9760;50.944;5.304;2023-05-07T14:48:44;10.23;;;3.10;;
19251;SDS011;9760;50.944;5.304;2023-05-07T14:51:11;7.13;;;2.67;;
19251;SDS011;9760;50.944;5.304;2023-05-07T14:53:37;9.67;;;2.90;;
19251;SDS011;9760;50.944;5.304;2023-05-07T14:56:03;12.63;;;2.53;;
19251;SDS011;9760;50.944;5.304;2023-05-07T14:58:30;9.03;;;2.50;;
19251;SDS011;9760;50.944;5.304;2023-05-07T15:00:56;8.60;;;2.40;;